Time;durP1;ratioP1;P1;durP2;ratioP2;P2;SDS_P1;SDS_P2;PMS_P1;PMS_P2;Temp;Humidity;BMP_temperature;BMP_pressure;BME280_temperature;BME280_humidity;BME280_pressure;Samples;Min_cycle;Max_cycle;Signal;HPM_P1;HPM_P2
2022/03/09 00:02:22;;;;;;;13.55;9.00;;;;;;;;;;4980242;28;20034;-50
2022/03/09 00:04:48;;;;;;;14.43;9.33;;;;;;;;;;4981688;28;20034;-49
2022/03/09 00:07:13;;;;;;;14.50;9.57;;;;;;;;;;4981405;28;20335;-50
2022/03/09 00:09:38;;;;;;;13.67;8.60;;;;;;;;;;4981512;28;20026;-49
2022/03/09 00:12:04;;;;;;;13.50;8.67;;;;;;;;;;4981734;28;20033;-51
2022/03/09 00:14:29;;;;;;;11.45;8.48;;;;;;;;;;4983353;28;20281;-49
2022/03/09 00:16:54;;;;;;;13.75;9.20;;;;;;;;;;4980503;28;20113;-49
2022/03/09 00:19:20;;;;;;;13.77;8.93;;;;;;;;;;4981538;28;20046;-51
2022/03/09 00:21:45;;;;;;;13.30;8.75;;;;;;;;;;4981324;28;20265;-51
2022/03/09 00:24:10;;;;;;;13.03;8.40;;;;;;;;;;4981158;28;20034;-51
2022/03/09 00:26:35;;;;;;;12.98;8.63;;;;;;;;;;4979968;28;20273;-51
2022/03/09 00:29:01;;;;;;;12.67;8.73;;;;;;;;;;4981832;28;20022;-50
2022/03/09 00:31:26;;;;;;;12.57;8.53;;;;;;;;;;4981091;28;20317;-49
2022/03/09 00:33:51;;;;;;;14.07;8.73;;;;;;;;;;4981277;28;20822;-50
2022/03/09 00:36:16;;;;;;;13.30;9.30;;;;;;;;;;4980843;28;20583;-51
2022/03/09 00:38:41;;;;;;;12.77;8.68;;;;;;;;;;4981745;28;20692;-50
2022/03/09 00:41:07;;;;;;;13.07;8.97;;;;;;;;;;4982602;28;20417;-49
2022/03/09 00:43:32;;;;;;;12.07;8.60;;;;;;;;;;4989205;28;20029;-52
2022/03/09 00:45:57;;;;;;;12.88;8.68;;;;;;;;;;4994122;28;20027;-49
2022/03/09 00:48:22;;;;;;;11.75;8.27;;;;;;;;;;4994628;28;20117;-48
2022/03/09 00:50:48;;;;;;;13.13;8.93;;;;;;;;;;4993404;28;20022;-49
2022/03/09 00:53:13;;;;;;;13.50;9.33;;;;;;;;;;4988479;28;20076;-49
2022/03/09 00:55:38;;;;;;;13.70;8.90;;;;;;;;;;4988642;28;20277;-49
2022/03/09 00:58:04;;;;;;;11.73;8.68;;;;;;;;;;4989583;28;20261;-50
2022/03/09 01:00:29;;;;;;;13.85;8.50;;;;;;;;;;4989156;28;20037;-49
2022/03/09 01:02:55;;;;;;;12.02;8.73;;;;;;;;;;4985294;28;20189;-51
2022/03/09 01:05:20;;;;;;;12.30;8.35;;;;;;;;;;4985078;28;20026;-49
2022/03/09 01:07:45;;;;;;;13.43;8.80;;;;;;;;;;4984297;28;20041;-50
2022/03/09 01:10:15;;;;;;;13.85;9.13;;;;;;;;;;4984746;28;20277;-49
2022/03/09 01:12:41;;;;;;;12.73;8.32;;;;;;;;;;4983522;28;20037;-51
2022/03/09 01:15:06;;;;;;;12.38;8.73;;;;;;;;;;4982832;28;20926;-49
2022/03/09 01:17:33;;;;;;;12.45;8.20;;;;;;;;;;4982344;28;20022;-52
2022/03/09 01:19:59;;;;;;;11.63;8.00;;;;;;;;;;4982428;28;20532;-51
2022/03/09 01:22:24;;;;;;;13.50;8.07;;;;;;;;;;4982426;28;20080;-49
2022/03/09 01:24:49;;;;;;;11.52;8.48;;;;;;;;;;4981186;28;20029;-50
2022/03/09 01:27:14;;;;;;;12.43;8.00;;;;;;;;;;4982530;28;20030;-49
2022/03/09 01:29:40;;;;;;;12.23;8.30;;;;;;;;;;4981767;28;20280;-49
2022/03/09 01:32:05;;;;;;;11.23;8.20;;;;;;;;;;4982966;28;21086;-51
2022/03/09 01:34:30;;;;;;;12.18;8.27;;;;;;;;;;4983378;28;20732;-49
2022/03/09 01:36:55;;;;;;;11.70;7.90;;;;;;;;;;4982942;28;20454;-49
2022/03/09 01:39:21;;;;;;;12.23;8.63;;;;;;;;;;4981789;28;20297;-51
2022/03/09 01:41:46;;;;;;;12.73;8.57;;;;;;;;;;4983438;28;20080;-50
2022/03/09 01:44:15;;;;;;;12.65;8.15;;;;;;;;;;4983283;28;20277;-50
2022/03/09 01:46:40;;;;;;;12.43;8.63;;;;;;;;;;4983067;28;20026;-50
2022/03/09 01:49:06;;;;;;;11.00;7.78;;;;;;;;;;4983528;28;20029;-50
2022/03/09 01:51:32;;;;;;;12.85;8.65;;;;;;;;;;4983377;28;20096;-50
2022/03/09 01:53:57;;;;;;;12.00;7.85;;;;;;;;;;4983499;28;20130;-49
2022/03/09 01:56:23;;;;;;;11.60;8.07;;;;;;;;;;4982982;28;20117;-50
2022/03/09 01:58:48;;;;;;;13.18;8.43;;;;;;;;;;4981513;28;20030;-50
2022/03/09 02:01:13;;;;;;;10.80;7.73;;;;;;;;;;4983229;28;20413;-50
2022/03/09 02:03:38;;;;;;;11.57;7.77;;;;;;;;;;4983551;28;20653;-50
2022/03/09 02:06:03;;;;;;;11.30;7.73;;;;;;;;;;4983216;28;20312;-50
2022/03/09 02:11:13;;;;;;;12.52;8.43;;;;;;;;;;4983242;28;20268;-49
2022/03/09 02:13:38;;;;;;;12.70;7.40;;;;;;;;;;4983355;28;20026;-51
2022/03/09 02:16:04;;;;;;;10.48;7.25;;;;;;;;;;4982970;28;20019;-50
2022/03/09 02:18:29;;;;;;;11.23;8.43;;;;;;;;;;4982674;28;20022;-49
2022/03/09 02:20:54;;;;;;;11.30;7.67;;;;;;;;;;4983141;28;21087;-51
2022/03/09 02:23:19;;;;;;;11.20;8.00;;;;;;;;;;4981665;28;20657;-49
2022/03/09 02:25:45;;;;;;;10.70;7.93;;;;;;;;;;4982863;28;20659;-50
2022/03/09 02:28:10;;;;;;;11.83;8.00;;;;;;;;;;4982867;28;20270;-50
2022/03/09 02:30:35;;;;;;;11.80;7.57;;;;;;;;;;4982891;28;20407;-50
2022/03/09 02:33:00;;;;;;;10.75;7.78;;;;;;;;;;4979465;28;20269;-50
2022/03/09 02:35:25;;;;;;;11.60;7.80;;;;;;;;;;4973006;28;20026;-51
2022/03/09 02:37:51;;;;;;;11.83;7.63;;;;;;;;;;4983172;28;20780;-50
2022/03/09 02:40:17;;;;;;;12.30;8.15;;;;;;;;;;4982782;28;20501;-49
2022/03/09 02:42:42;;;;;;;11.07;8.00;;;;;;;;;;4983221;28;20030;-49
2022/03/09 02:45:08;;;;;;;10.55;7.50;;;;;;;;;;4983070;28;20030;-49
2022/03/09 02:47:33;;;;;;;12.25;8.38;;;;;;;;;;4982953;28;20019;-49
2022/03/09 02:49:58;;;;;;;12.30;7.67;;;;;;;;;;4983100;28;20029;-49
2022/03/09 02:52:23;;;;;;;11.10;8.17;;;;;;;;;;4981432;28;20804;-49
2022/03/09 02:54:49;;;;;;;10.60;7.53;;;;;;;;;;4982569;28;20324;-49
2022/03/09 02:57:14;;;;;;;11.00;7.80;;;;;;;;;;4982995;28;20266;-49
2022/03/09 02:59:39;;;;;;;10.85;7.10;;;;;;;;;;4982768;28;20033;-49
2022/03/09 03:02:05;;;;;;;9.07;6.73;;;;;;;;;;4982883;28;20525;-50
2022/03/09 03:04:30;;;;;;;11.23;7.35;;;;;;;;;;4982456;28;20612;-49
2022/03/09 03:06:55;;;;;;;11.07;7.57;;;;;;;;;;4982612;28;20741;-48
2022/03/09 03:09:20;;;;;;;9.20;6.80;;;;;;;;;;4982737;28;20326;-47
2022/03/09 03:11:46;;;;;;;10.90;8.00;;;;;;;;;;4981812;28;20296;-48
2022/03/09 03:14:11;;;;;;;10.77;7.57;;;;;;;;;;4982891;28;20266;-50
2022/03/09 03:16:36;;;;;;;11.47;7.80;;;;;;;;;;4981976;28;20486;-49
2022/03/09 03:19:02;;;;;;;10.73;7.33;;;;;;;;;;4982691;28;20544;-49
2022/03/09 03:21:27;;;;;;;10.93;7.47;;;;;;;;;;4982323;28;20270;-50
2022/03/09 03:23:52;;;;;;;10.82;6.90;;;;;;;;;;4982677;28;20054;-49
2022/03/09 03:26:17;;;;;;;9.50;6.83;;;;;;;;;;4982182;28;20036;-48
2022/03/09 03:28:42;;;;;;;11.30;7.47;;;;;;;;;;4982247;28;20311;-48
2022/03/09 03:31:08;;;;;;;10.40;7.40;;;;;;;;;;4982489;28;20361;-49
2022/03/09 03:33:33;;;;;;;10.60;7.30;;;;;;;;;;4982416;28;20281;-49
2022/03/09 03:35:58;;;;;;;9.98;7.20;;;;;;;;;;4982066;28;20277;-50
2022/03/09 03:38:24;;;;;;;11.88;7.57;;;;;;;;;;4981623;28;20053;-49
2022/03/09 03:40:49;;;;;;;11.38;7.70;;;;;;;;;;4982131;28;20433;-49
2022/03/09 03:43:14;;;;;;;9.98;7.15;;;;;;;;;;4982238;28;20033;-49
2022/03/09 03:45:39;;;;;;;9.77;7.22;;;;;;;;;;4980511;28;20026;-48
2022/03/09 03:48:05;;;;;;;9.57;7.72;;;;;;;;;;4981954;28;20026;-49
2022/03/09 03:50:30;;;;;;;10.65;7.50;;;;;;;;;;4981681;28;20034;-49
2022/03/09 03:52:55;;;;;;;9.90;6.75;;;;;;;;;;4981760;28;20042;-49
2022/03/09 03:55:21;;;;;;;9.83;7.43;;;;;;;;;;4980363;28;20087;-49
2022/03/09 03:57:46;;;;;;;11.43;7.45;;;;;;;;;;4981964;28;20373;-49
2022/03/09 04:00:11;;;;;;;10.03;6.90;;;;;;;;;;4981708;28;20037;-49
2022/03/09 04:02:37;;;;;;;10.30;7.47;;;;;;;;;;4981240;28;20356;-50
2022/03/09 04:05:02;;;;;;;10.63;7.40;;;;;;;;;;4981633;28;20058;-49
2022/03/09 04:07:27;;;;;;;9.20;7.07;;;;;;;;;;4981541;28;20104;-49
2022/03/09 04:09:53;;;;;;;9.57;7.32;;;;;;;;;;4981889;28;20026;-49
2022/03/09 04:12:19;;;;;;;9.27;6.95;;;;;;;;;;4981857;28;20038;-49
2022/03/09 04:14:44;;;;;;;10.17;7.50;;;;;;;;;;4981958;28;20022;-50
2022/03/09 04:17:10;;;;;;;10.48;7.00;;;;;;;;;;4981130;28;20316;-50
2022/03/09 04:19:35;;;;;;;9.97;7.60;;;;;;;;;;4981621;28;20134;-50
2022/03/09 04:22:00;;;;;;;9.90;6.87;;;;;;;;;;4982543;28;20109;-49
2022/03/09 04:24:25;;;;;;;10.00;7.00;;;;;;;;;;4987891;28;21290;-50
2022/03/09 04:26:51;;;;;;;10.43;6.70;;;;;;;;;;4987692;28;20281;-49
2022/03/09 04:29:16;;;;;;;7.80;6.00;;;;;;;;;;4988412;28;20280;-50
2022/03/09 04:31:41;;;;;;;8.13;6.30;;;;;;;;;;4987930;28;20030;-49
2022/03/09 04:34:06;;;;;;;9.30;6.80;;;;;;;;;;4988067;28;20396;-51
2022/03/09 04:36:32;;;;;;;8.97;6.33;;;;;;;;;;4987796;28;20516;-49
2022/03/09 04:38:57;;;;;;;9.02;6.22;;;;;;;;;;4988020;28;20689;-49
2022/03/09 04:41:22;;;;;;;9.50;6.50;;;;;;;;;;4988069;28;20152;-51
2022/03/09 04:43:47;;;;;;;10.10;6.50;;;;;;;;;;4986963;28;20269;-49
2022/03/09 04:46:13;;;;;;;8.15;6.45;;;;;;;;;;4987940;28;20289;-49
2022/03/09 04:48:38;;;;;;;8.27;5.75;;;;;;;;;;4987396;28;20489;-51
2022/03/09 04:51:04;;;;;;;8.63;6.10;;;;;;;;;;4987108;28;20018;-50
2022/03/09 04:53:29;;;;;;;10.48;6.97;;;;;;;;;;4986790;28;20061;-49
2022/03/09 04:55:55;;;;;;;8.85;6.22;;;;;;;;;;4987074;28;20647;-50
2022/03/09 04:58:20;;;;;;;9.50;6.50;;;;;;;;;;4987071;28;20030;-51
2022/03/09 05:00:46;;;;;;;9.13;6.43;;;;;;;;;;4977046;28;20540;-51
2022/03/09 05:03:11;;;;;;;9.27;6.65;;;;;;;;;;4980481;28;20021;-50
2022/03/09 05:05:36;;;;;;;8.53;6.20;;;;;;;;;;4987503;28;20038;-50
2022/03/09 05:08:01;;;;;;;9.35;6.72;;;;;;;;;;4987307;28;20270;-51
2022/03/09 05:10:27;;;;;;;9.97;5.93;;;;;;;;;;4987536;28;20644;-50
2022/03/09 05:12:52;;;;;;;9.18;6.28;;;;;;;;;;4986195;28;20289;-50
2022/03/09 05:15:17;;;;;;;8.50;6.70;;;;;;;;;;4981405;28;20642;-52
2022/03/09 05:17:43;;;;;;;8.13;6.30;;;;;;;;;;4987668;28;20610;-51
2022/03/09 05:20:08;;;;;;;8.70;6.32;;;;;;;;;;4987390;28;20301;-51
2022/03/09 05:22:34;;;;;;;8.45;6.63;;;;;;;;;;4986010;28;20068;-50
2022/03/09 05:24:59;;;;;;;8.03;6.07;;;;;;;;;;4987324;28;20025;-50
2022/03/09 05:27:27;;;;;;;9.00;6.30;;;;;;;;;;4980083;28;20664;-51
2022/03/09 05:29:53;;;;;;;7.75;6.43;;;;;;;;;;4983425;28;20030;-50
2022/03/09 05:32:18;;;;;;;8.55;6.30;;;;;;;;;;4986078;28;20010;-50
2022/03/09 05:34:45;;;;;;;9.00;6.73;;;;;;;;;;4983904;28;20541;-51
2022/03/09 05:37:10;;;;;;;8.27;6.20;;;;;;;;;;4984406;28;20002;-51
2022/03/09 05:39:36;;;;;;;8.43;5.90;;;;;;;;;;4985299;28;20459;-51
2022/03/09 05:42:01;;;;;;;7.53;6.03;;;;;;;;;;4984841;28;20830;-52
2022/03/09 05:44:26;;;;;;;9.05;6.80;;;;;;;;;;4972970;28;20724;-52
2022/03/09 05:46:51;;;;;;;9.77;6.70;;;;;;;;;;4970441;28;20014;-49
2022/03/09 05:49:17;;;;;;;7.78;6.03;;;;;;;;;;4977033;28;20357;-49
2022/03/09 05:51:42;;;;;;;8.25;6.20;;;;;;;;;;4976281;28;20046;-50
2022/03/09 05:54:07;;;;;;;8.27;6.67;;;;;;;;;;4977233;28;20046;-49
2022/03/09 05:56:32;;;;;;;7.57;6.00;;;;;;;;;;4965635;28;20071;-50
2022/03/09 05:58:58;;;;;;;8.70;6.30;;;;;;;;;;4971726;28;20321;-50
2022/03/09 06:01:23;;;;;;;8.80;6.37;;;;;;;;;;4983111;28;21357;-49
2022/03/09 06:03:49;;;;;;;7.65;5.93;;;;;;;;;;4983124;28;20513;-51
2022/03/09 06:06:14;;;;;;;7.50;6.25;;;;;;;;;;4982613;28;20102;-49
2022/03/09 06:08:39;;;;;;;8.32;6.57;;;;;;;;;;4983324;28;20026;-50
2022/03/09 06:11:04;;;;;;;8.20;6.57;;;;;;;;;;4983828;28;20175;-51
2022/03/09 06:13:30;;;;;;;8.57;6.35;;;;;;;;;;4983535;28;20022;-49
2022/03/09 06:15:55;;;;;;;8.83;6.40;;;;;;;;;;4983344;28;20026;-50
2022/03/09 06:18:20;;;;;;;8.30;5.93;;;;;;;;;;4995548;28;20270;-49
2022/03/09 06:20:45;;;;;;;7.57;6.03;;;;;;;;;;4983012;28;20305;-50
2022/03/09 06:23:11;;;;;;;7.45;6.25;;;;;;;;;;4983457;28;20030;-51
2022/03/09 06:25:36;;;;;;;8.47;6.17;;;;;;;;;;4984781;28;20061;-51
2022/03/09 06:28:01;;;;;;;8.60;6.35;;;;;;;;;;4984271;28;20022;-50
2022/03/09 06:30:27;;;;;;;7.83;6.13;;;;;;;;;;4983878;28;20077;-50
2022/03/09 06:32:52;;;;;;;8.38;6.47;;;;;;;;;;4979388;28;20408;-51
2022/03/09 06:35:17;;;;;;;8.07;6.05;;;;;;;;;;4982490;28;20096;-51
2022/03/09 06:37:43;;;;;;;9.13;5.80;;;;;;;;;;4983135;28;20030;-51
2022/03/09 06:40:08;;;;;;;7.63;5.90;;;;;;;;;;4981593;28;20297;-52
2022/03/09 06:42:33;;;;;;;8.95;5.68;;;;;;;;;;4984415;28;20059;-51
2022/03/09 06:44:59;;;;;;;7.67;5.77;;;;;;;;;;4991869;28;20429;-51
2022/03/09 06:47:35;;;;;;;7.78;5.82;;;;;;;;;;4992579;28;20274;-51
2022/03/09 06:50:01;;;;;;;6.68;5.40;;;;;;;;;;4992431;28;20030;-51
2022/03/09 06:52:26;;;;;;;8.10;5.50;;;;;;;;;;4987949;28;20421;-52
2022/03/09 06:54:51;;;;;;;6.77;5.67;;;;;;;;;;4987237;28;20027;-50
2022/03/09 06:57:17;;;;;;;6.47;5.28;;;;;;;;;;4987739;28;20304;-50
2022/03/09 06:59:44;;;;;;;7.47;5.43;;;;;;;;;;4986702;28;20508;-50
2022/03/09 07:02:09;;;;;;;6.22;5.18;;;;;;;;;;4985457;28;20269;-49
2022/03/09 07:04:34;;;;;;;7.37;5.90;;;;;;;;;;4982889;28;20523;-50
2022/03/09 07:07:00;;;;;;;8.63;6.70;;;;;;;;;;4982378;28;20272;-49
2022/03/09 07:09:29;;;;;;;7.43;5.93;;;;;;;;;;4982046;28;20029;-49
2022/03/09 07:11:54;;;;;;;7.70;5.93;;;;;;;;;;4982843;28;20284;-49
2022/03/09 07:14:20;;;;;;;7.82;5.90;;;;;;;;;;4981627;28;20031;-49
2022/03/09 07:16:47;;;;;;;8.05;6.10;;;;;;;;;;4983291;28;20033;-51
2022/03/09 07:19:14;;;;;;;8.38;5.53;;;;;;;;;;4987845;28;20158;-50
2022/03/09 07:21:39;;;;;;;8.30;6.20;;;;;;;;;;4980879;28;20101;-50
2022/03/09 07:24:05;;;;;;;8.00;6.10;;;;;;;;;;4980960;28;20632;-48
2022/03/09 07:26:30;;;;;;;7.28;5.65;;;;;;;;;;4972582;28;20034;-50
2022/03/09 07:28:56;;;;;;;7.00;5.53;;;;;;;;;;4966843;28;20444;-50
2022/03/09 07:31:21;;;;;;;7.25;5.82;;;;;;;;;;4989121;28;20777;-51
2022/03/09 07:33:47;;;;;;;7.63;5.85;;;;;;;;;;4980928;28;20129;-49
2022/03/09 07:36:12;;;;;;;7.47;5.97;;;;;;;;;;4965390;28;20821;-51
2022/03/09 07:38:38;;;;;;;6.83;5.60;;;;;;;;;;4964422;28;20466;-50
2022/03/09 07:41:04;;;;;;;7.22;5.93;;;;;;;;;;4962983;28;20784;-50
2022/03/09 07:43:29;;;;;;;22.88;6.43;;;;;;;;;;4963184;28;20023;-50
2022/03/09 07:45:54;;;;;;;7.70;6.00;;;;;;;;;;4969922;28;20026;-49
2022/03/09 07:48:19;;;;;;;7.43;5.97;;;;;;;;;;4978874;28;20014;-50
2022/03/09 07:50:45;;;;;;;8.93;6.23;;;;;;;;;;4978528;28;20430;-49
2022/03/09 07:53:10;;;;;;;7.38;5.80;;;;;;;;;;4978369;28;20289;-49
2022/03/09 07:55:35;;;;;;;8.97;6.23;;;;;;;;;;4978943;28;20558;-49
2022/03/09 07:58:00;;;;;;;8.63;5.90;;;;;;;;;;4970818;28;20262;-50
2022/03/09 08:00:27;;;;;;;9.03;6.70;;;;;;;;;;4962704;28;20300;-49
2022/03/09 08:02:52;;;;;;;7.80;5.95;;;;;;;;;;4963973;28;20084;-49
2022/03/09 08:05:17;;;;;;;7.25;5.95;;;;;;;;;;4962722;28;20548;-48
2022/03/09 08:07:43;;;;;;;9.73;6.77;;;;;;;;;;4962649;28;20505;-49
2022/03/09 08:10:09;;;;;;;8.85;6.57;;;;;;;;;;4962768;28;20742;-49
2022/03/09 08:12:34;;;;;;;8.25;6.60;;;;;;;;;;4966849;28;20030;-49
2022/03/09 08:14:59;;;;;;;9.15;6.85;;;;;;;;;;4963214;28;20414;-49
2022/03/09 08:17:25;;;;;;;8.90;6.30;;;;;;;;;;4964449;28;20525;-50
2022/03/09 08:19:50;;;;;;;8.33;6.03;;;;;;;;;;4962814;28;20357;-50
2022/03/09 08:22:15;;;;;;;8.87;6.37;;;;;;;;;;4976652;28;20022;-49
2022/03/09 08:24:41;;;;;;;8.40;5.87;;;;;;;;;;4981194;28;20088;-49
2022/03/09 08:27:06;;;;;;;10.63;7.35;;;;;;;;;;4981251;28;20254;-49
2022/03/09 08:29:31;;;;;;;9.73;6.30;;;;;;;;;;4982017;28;20180;-50
2022/03/09 08:31:56;;;;;;;8.83;6.50;;;;;;;;;;4981368;28;20289;-49
2022/03/09 08:34:21;;;;;;;6.85;5.65;;;;;;;;;;4979158;28;20050;-49
2022/03/09 08:36:47;;;;;;;8.30;5.95;;;;;;;;;;4963508;28;20548;-49
2022/03/09 08:39:12;;;;;;;8.65;6.85;;;;;;;;;;4973477;28;20034;-49
2022/03/09 08:41:37;;;;;;;8.60;6.60;;;;;;;;;;4977386;28;20034;-49
2022/03/09 08:44:03;;;;;;;9.10;6.53;;;;;;;;;;4981757;28;20273;-49
2022/03/09 08:46:28;;;;;;;7.55;6.07;;;;;;;;;;4977267;28;20061;-50
2022/03/09 08:48:53;;;;;;;8.97;7.00;;;;;;;;;;4980105;28;20089;-50
2022/03/09 08:51:20;;;;;;;8.50;6.23;;;;;;;;;;4981171;28;20300;-50
2022/03/09 08:53:45;;;;;;;9.43;6.25;;;;;;;;;;4979959;28;20306;-48
2022/03/09 08:56:11;;;;;;;8.15;6.10;;;;;;;;;;4981053;28;20121;-49
2022/03/09 08:58:36;;;;;;;8.87;6.00;;;;;;;;;;4978428;28;20777;-49
2022/03/09 09:01:02;;;;;;;9.17;6.70;;;;;;;;;;4971072;28;20321;-50
2022/03/09 09:03:28;;;;;;;11.60;7.18;;;;;;;;;;4960864;28;20267;-48
2022/03/09 09:05:53;;;;;;;8.98;6.75;;;;;;;;;;4961369;28;20089;-49
2022/03/09 09:08:19;;;;;;;8.33;6.47;;;;;;;;;;4960765;28;20085;-48
2022/03/09 09:10:44;;;;;;;9.55;7.25;;;;;;;;;;4964835;28;20274;-50
2022/03/09 09:13:10;;;;;;;8.25;6.20;;;;;;;;;;4971118;28;20029;-50
2022/03/09 09:15:36;;;;;;;8.95;6.43;;;;;;;;;;4973945;28;20578;-49
2022/03/09 09:18:02;;;;;;;9.70;6.03;;;;;;;;;;4967151;28;20023;-49
2022/03/09 09:20:29;;;;;;;8.73;6.05;;;;;;;;;;4966707;28;20313;-49
2022/03/09 09:22:57;;;;;;;8.63;5.97;;;;;;;;;;4966792;28;20766;-50
2022/03/09 09:25:25;;;;;;;8.98;6.60;;;;;;;;;;4983759;28;20524;-49
2022/03/09 09:27:51;;;;;;;9.32;6.78;;;;;;;;;;4985117;28;20374;-49
2022/03/09 09:30:16;;;;;;;9.35;6.75;;;;;;;;;;4978996;28;20015;-49
2022/03/09 09:32:41;;;;;;;9.90;6.97;;;;;;;;;;4966591;28;20027;-50
2022/03/09 09:35:07;;;;;;;9.55;6.57;;;;;;;;;;4965270;28;20289;-48
2022/03/09 09:37:32;;;;;;;9.30;6.55;;;;;;;;;;4965427;28;20015;-50
2022/03/09 09:39:57;;;;;;;8.77;6.23;;;;;;;;;;4967236;28;20039;-49
2022/03/09 09:42:30;;;;;;;8.33;6.37;;;;;;;;;;4965626;28;20277;-47
2022/03/09 09:44:55;;;;;;;9.48;6.53;;;;;;;;;;4969803;28;20034;-50
2022/03/09 09:47:21;;;;;;;9.52;6.88;;;;;;;;;;4964357;28;20080;-48
2022/03/09 09:49:48;;;;;;;10.07;6.72;;;;;;;;;;4965899;28;20538;-49
2022/03/09 09:52:13;;;;;;;10.15;7.13;;;;;;;;;;4968236;28;20027;-49
2022/03/09 09:54:39;;;;;;;9.68;7.03;;;;;;;;;;4980448;28;20061;-49
2022/03/09 09:57:04;;;;;;;10.77;7.20;;;;;;;;;;4982198;28;20011;-49
2022/03/09 09:59:29;;;;;;;9.00;6.57;;;;;;;;;;4964449;28;20035;-49
2022/03/09 10:01:54;;;;;;;9.60;6.83;;;;;;;;;;4964314;28;20023;-49
2022/03/09 10:04:20;;;;;;;9.07;7.00;;;;;;;;;;4974434;28;20018;-49
2022/03/09 10:06:45;;;;;;;12.23;7.87;;;;;;;;;;4963387;28;20270;-50
2022/03/09 10:09:11;;;;;;;10.57;6.97;;;;;;;;;;4964196;28;20270;-49
2022/03/09 10:11:46;;;;;;;10.15;6.85;;;;;;;;;;4964682;28;21133;-49
2022/03/09 10:14:11;;;;;;;9.55;6.80;;;;;;;;;;4969973;28;20030;-49
2022/03/09 10:16:37;;;;;;;10.82;7.15;;;;;;;;;;4982915;28;20453;-49
2022/03/09 10:19:02;;;;;;;9.70;6.83;;;;;;;;;;4983831;28;20042;-50
2022/03/09 10:21:28;;;;;;;10.50;6.97;;;;;;;;;;4983567;28;20266;-50
2022/03/09 10:23:57;;;;;;;10.10;7.20;;;;;;;;;;4983232;28;20026;-49
2022/03/09 10:26:26;;;;;;;8.73;6.55;;;;;;;;;;4983169;28;20054;-50
2022/03/09 10:29:03;;;;;;;10.90;7.00;;;;;;;;;;4982992;28;20057;-49
2022/03/09 10:31:41;;;;;;;9.65;6.68;;;;;;;;;;4983439;28;20030;-51
2022/03/09 10:34:09;;;;;;;10.40;6.80;;;;;;;;;;4982769;28;20037;-52
2022/03/09 10:36:34;;;;;;;10.32;6.90;;;;;;;;;;4983392;28;20033;-50
2022/03/09 10:39:29;;;;;;;11.43;7.65;;;;;;;;;;4983621;28;20034;-50
2022/03/09 10:41:54;;;;;;;10.68;7.07;;;;;;;;;;4970324;28;20042;-50
2022/03/09 10:44:19;;;;;;;11.13;8.00;;;;;;;;;;4983063;28;20053;-52
2022/03/09 10:46:48;;;;;;;10.73;7.53;;;;;;;;;;4982175;28;20074;-52
2022/03/09 10:49:14;;;;;;;12.10;7.78;;;;;;;;;;4982995;28;20112;-51
2022/03/09 10:51:40;;;;;;;11.55;7.28;;;;;;;;;;4982852;28;20027;-52
2022/03/09 10:54:08;;;;;;;10.57;7.27;;;;;;;;;;4980919;28;20196;-50
2022/03/09 10:56:33;;;;;;;9.77;6.65;;;;;;;;;;4981380;28;20281;-51
2022/03/09 10:59:31;;;;;;;10.73;7.22;;;;;;;;;;4981857;28;20046;-52
2022/03/09 11:02:02;;;;;;;10.70;7.32;;;;;;;;;;4955766;28;20034;-51
2022/03/09 11:04:27;;;;;;;10.88;6.75;;;;;;;;;;4981519;28;20028;-50
2022/03/09 11:06:55;;;;;;;11.17;7.60;;;;;;;;;;4981200;28;20030;-50
2022/03/09 11:09:20;;;;;;;9.73;6.65;;;;;;;;;;4980142;28;20373;-52
2022/03/09 11:11:46;;;;;;;11.57;7.35;;;;;;;;;;4978665;28;20097;-51
2022/03/09 11:14:11;;;;;;;11.45;7.50;;;;;;;;;;4974965;28;20071;-50
2022/03/09 11:16:37;;;;;;;10.10;7.55;;;;;;;;;;4964188;28;20019;-50
2022/03/09 11:19:02;;;;;;;10.93;7.28;;;;;;;;;;4964192;28;20068;-52
2022/03/09 11:21:27;;;;;;;10.63;6.77;;;;;;;;;;4969861;28;20037;-51
2022/03/09 11:23:52;;;;;;;9.50;6.80;;;;;;;;;;4971140;28;20284;-51
2022/03/09 11:26:19;;;;;;;11.05;7.60;;;;;;;;;;4965631;28;20109;-51
2022/03/09 11:28:44;;;;;;;11.35;7.65;;;;;;;;;;4946141;28;20037;-50
2022/03/09 11:31:14;;;;;;;10.73;7.72;;;;;;;;;;4973610;28;20109;-50
2022/03/09 11:33:40;;;;;;;11.57;7.68;;;;;;;;;;4978453;28;20030;-50
2022/03/09 11:36:21;;;;;;;9.60;7.05;;;;;;;;;;4980557;28;20088;-51
2022/03/09 11:38:48;;;;;;;10.85;7.55;;;;;;;;;;4980211;28;20085;-50
2022/03/09 11:41:16;;;;;;;10.75;6.97;;;;;;;;;;4980713;28;20109;-52
2022/03/09 11:43:41;;;;;;;11.55;7.40;;;;;;;;;;4981107;28;20046;-51
2022/03/09 11:46:07;;;;;;;10.90;7.40;;;;;;;;;;4980770;28;20165;-50
2022/03/09 11:48:51;;;;;;;11.65;8.07;;;;;;;;;;4979555;28;20117;-51
2022/03/09 11:51:17;;;;;;;12.00;6.82;;;;;;;;;;4980697;28;20026;-49
2022/03/09 11:54:09;;;;;;;11.73;8.13;;;;;;;;;;4980505;28;20050;-49
2022/03/09 11:56:35;;;;;;;11.35;7.22;;;;;;;;;;4977656;28;20113;-51
2022/03/09 11:59:07;;;;;;;10.27;7.05;;;;;;;;;;4979954;28;20050;-49
2022/03/09 12:01:35;;;;;;;10.25;6.97;;;;;;;;;;4979878;28;20014;-50
2022/03/09 12:04:00;;;;;;;10.50;7.15;;;;;;;;;;4978577;28;20088;-51
2022/03/09 12:06:41;;;;;;;9.83;6.73;;;;;;;;;;4979458;28;20478;-50
2022/03/09 12:09:07;;;;;;;11.00;7.10;;;;;;;;;;4979286;28;20421;-52
2022/03/09 12:11:53;;;;;;;11.00;8.15;;;;;;;;;;4975898;28;20026;-50
2022/03/09 12:14:25;;;;;;;10.98;7.22;;;;;;;;;;4981603;28;20081;-50
2022/03/09 12:16:59;;;;;;;9.73;6.88;;;;;;;;;;4973654;28;20097;-50
2022/03/09 12:19:25;;;;;;;11.75;7.55;;;;;;;;;;4972894;28;20041;-50
2022/03/09 12:21:50;;;;;;;10.77;7.23;;;;;;;;;;4982402;28;20022;-51
2022/03/09 12:24:19;;;;;;;9.40;6.55;;;;;;;;;;4982515;28;20129;-51
2022/03/09 12:26:51;;;;;;;10.25;6.78;;;;;;;;;;4980149;28;20106;-50
2022/03/09 12:29:16;;;;;;;10.00;6.78;;;;;;;;;;4967815;28;20027;-51
2022/03/09 12:31:41;;;;;;;10.70;7.50;;;;;;;;;;4968226;28;20019;-51
2022/03/09 12:34:08;;;;;;;10.63;7.20;;;;;;;;;;4976811;28;20015;-49
2022/03/09 12:36:33;;;;;;;9.20;6.28;;;;;;;;;;4980219;28;20018;-52
2022/03/09 12:38:59;;;;;;;11.88;7.10;;;;;;;;;;4976839;28;20508;-50
2022/03/09 12:41:25;;;;;;;10.05;6.90;;;;;;;;;;4982190;28;20469;-51
2022/03/09 12:43:51;;;;;;;10.68;6.80;;;;;;;;;;4981155;28;20030;-50
2022/03/09 12:46:16;;;;;;;9.13;6.45;;;;;;;;;;4970322;28;20023;-51
2022/03/09 12:48:41;;;;;;;9.93;6.37;;;;;;;;;;4969864;28;20046;-52
2022/03/09 12:51:07;;;;;;;9.55;6.55;;;;;;;;;;4964922;28;20278;-52
2022/03/09 12:53:32;;;;;;;9.50;6.63;;;;;;;;;;4964626;28;20506;-50
2022/03/09 12:55:58;;;;;;;9.93;6.93;;;;;;;;;;4963496;28;20576;-50
2022/03/09 12:58:25;;;;;;;10.25;6.75;;;;;;;;;;4964297;28;20581;-52
2022/03/09 13:01:03;;;;;;;9.57;6.30;;;;;;;;;;4965841;28;20054;-51
2022/03/09 13:03:28;;;;;;;8.88;6.88;;;;;;;;;;4967608;28;20493;-50
2022/03/09 13:05:54;;;;;;;10.63;7.00;;;;;;;;;;4981404;28;20050;-50
2022/03/09 13:08:19;;;;;;;10.03;6.57;;;;;;;;;;4980675;28;20943;-51
2022/03/09 13:10:49;;;;;;;11.10;7.10;;;;;;;;;;4965505;28;20501;-51
2022/03/09 13:13:14;;;;;;;9.32;6.63;;;;;;;;;;4969511;28;20061;-50
2022/03/09 13:15:40;;;;;;;10.20;6.50;;;;;;;;;;4968737;28;20588;-50
2022/03/09 13:18:06;;;;;;;9.77;6.85;;;;;;;;;;4975346;28;20293;-53
2022/03/09 13:20:31;;;;;;;9.60;6.38;;;;;;;;;;4979674;28;20067;-50
2022/03/09 13:22:56;;;;;;;9.35;6.32;;;;;;;;;;4983709;28;20018;-50
2022/03/09 13:25:27;;;;;;;10.77;7.03;;;;;;;;;;4966677;28;20018;-51
2022/03/09 13:28:02;;;;;;;10.43;6.70;;;;;;;;;;4965787;28;20405;-51
2022/03/09 13:30:28;;;;;;;10.63;7.25;;;;;;;;;;4967789;28;20034;-52
2022/03/09 13:32:54;;;;;;;10.13;6.53;;;;;;;;;;4971793;28;20045;-52
2022/03/09 13:35:19;;;;;;;10.37;7.00;;;;;;;;;;4962304;28;20039;-50
2022/03/09 13:37:45;;;;;;;11.65;7.05;;;;;;;;;;4973674;28;20273;-50
2022/03/09 13:40:11;;;;;;;11.30;6.68;;;;;;;;;;4979687;28;20522;-51
2022/03/09 13:42:39;;;;;;;9.35;6.97;;;;;;;;;;4979462;28;20133;-49
2022/03/09 13:45:11;;;;;;;9.80;6.80;;;;;;;;;;4983452;28;20117;-50
2022/03/09 13:47:48;;;;;;;10.02;7.40;;;;;;;;;;4981398;28;20136;-51
2022/03/09 13:50:21;;;;;;;9.65;6.90;;;;;;;;;;4977691;28;20038;-50
2022/03/09 13:52:46;;;;;;;10.35;7.13;;;;;;;;;;4976983;28;20050;-50
2022/03/09 13:55:17;;;;;;;8.57;6.18;;;;;;;;;;4982866;28;20018;-49
2022/03/09 13:57:43;;;;;;;8.80;6.30;;;;;;;;;;4983622;28;20101;-49
2022/03/09 14:00:11;;;;;;;8.43;6.00;;;;;;;;;;4983494;28;20035;-51
2022/03/09 14:02:36;;;;;;;8.68;5.65;;;;;;;;;;4983442;28;20855;-51
2022/03/09 14:05:02;;;;;;;8.83;5.90;;;;;;;;;;4972143;28;20161;-51
2022/03/09 14:07:36;;;;;;;10.95;6.05;;;;;;;;;;4964404;28;20116;-51
2022/03/09 14:10:14;;;;;;;9.25;5.93;;;;;;;;;;4964717;28;20845;-51
2022/03/09 14:12:40;;;;;;;10.32;6.80;;;;;;;;;;4980811;28;20088;-50
2022/03/09 14:15:06;;;;;;;8.02;5.93;;;;;;;;;;4981820;28;20018;-49
2022/03/09 14:17:31;;;;;;;8.68;6.05;;;;;;;;;;4983511;28;20054;-50
2022/03/09 14:19:56;;;;;;;10.00;6.50;;;;;;;;;;4983540;28;20038;-52
2022/03/09 14:22:21;;;;;;;9.40;6.30;;;;;;;;;;4982921;28;20037;-50
2022/03/09 14:24:47;;;;;;;9.20;6.13;;;;;;;;;;4982900;28;20026;-50
2022/03/09 14:27:12;;;;;;;9.18;5.75;;;;;;;;;;4983230;28;20018;-53
2022/03/09 14:29:37;;;;;;;9.57;6.57;;;;;;;;;;4982123;28;20022;-50
2022/03/09 14:32:03;;;;;;;9.47;6.67;;;;;;;;;;4982850;28;20050;-52
2022/03/09 14:34:28;;;;;;;7.93;5.88;;;;;;;;;;4996941;28;20034;-50